Main page
Satellite images 10-day forecastsClimateMarine weather Cyclones Lightning AirportsFAQ Newsletter About
Weather : Europe Africa North America South America Asia Australia-Oceania Others
Languages Contact

Longyearbyen, Longyear,

Svalbard Airport

latitude: Norway, longitude: 78-15N, elevation: 015-28E m


METAR: ENSB 211250Z 12008KT 9999 FEW035 SCT040 M08/M12 Q1011 RMK WIND 1400FT 11008KT
TAF: ENSB 2112/2212 13008KT 9999 FEW012 SCT020 TEMPO 2115/2212 12018KT PROB30 TEMPO 2200/2212 4000 -SN VV014

Time: 15:05 (13:05 UTC)

Current weather observation

The report was made 15 minutes ago, at 12:50 UTC
Wind 8 kt from the East/Southeast
Temperature -8°C
Humidity 73%
Pressure 1011 hPa
Visibility 10 km or more
Few clouds at a height of 3500 ft
Scattered clouds at a height of 4000 ft

Change units

Forecast

Forecast valid from 21 at 12 UTC to 22 at 12 UTC
Wind 8 kt from the Southeast
Visibility 10 km or more
Few clouds at a height of 1200 ft
Scattered clouds at a height of 2000 ft
Temporary
from 21 at 15 UTC to 22 at 12 UTC
Wind 18 kt from the East/Southeast
Probability 30% :
Temporary
from 22 at 00 UTC to 22 at 12 UTC
Visibility: 4000 m
at a height of 1400 ft
light snow
The information on this site is subject to a disclaimer
Weather : Europe Africa North America South America Asia Australia-Oceania Others
Satellite images 10-day forecastsClimateMarine weather Cyclones Lightning AirportsFAQ Languages Contact Newsletter About